Time;durP1;ratioP1;P1;durP2;ratioP2;P2;SDS_P1;SDS_P2;PMS_P1;PMS_P2;Temp;Humidity;BMP_temperature;BMP_pressure;BME280_temperature;BME280_humidity;BME280_pressure;Samples;Min_cycle;Max_cycle;Signal;HPM_P1;HPM_P2
2023/06/30 00:01:21;;;;;;;10.18;4.50;;;;;;;;;;4789662;29;20037;-89
2023/06/30 00:03:47;;;;;;;10.45;4.45;;;;;;;;;;4792400;29;20182;-89
2023/06/30 00:06:14;;;;;;;11.10;4.38;;;;;;;;;;4807204;29;20588;-89
2023/06/30 00:08:40;;;;;;;9.73;4.93;;;;;;;;;;4820572;29;20412;-89
2023/06/30 00:11:06;;;;;;;7.55;4.25;;;;;;;;;;4786268;29;20045;-88
2023/06/30 00:13:32;;;;;;;7.10;4.53;;;;;;;;;;4792984;29;20092;-89
2023/06/30 00:15:58;;;;;;;8.50;4.80;;;;;;;;;;4766505;29;20106;-89
2023/06/30 00:18:24;;;;;;;9.05;4.85;;;;;;;;;;4778134;29;20145;-88
2023/06/30 00:20:50;;;;;;;9.13;4.78;;;;;;;;;;4787245;29;20148;-89
2023/06/30 00:23:16;;;;;;;10.50;4.72;;;;;;;;;;4792829;29;20484;-89
2023/06/30 00:25:42;;;;;;;12.48;5.70;;;;;;;;;;4792571;29;20399;-88
2023/06/30 00:28:08;;;;;;;11.00;4.63;;;;;;;;;;4786883;29;22060;-88
2023/06/30 00:30:34;;;;;;;9.90;5.05;;;;;;;;;;4785994;29;20417;-88
2023/06/30 00:33:00;;;;;;;9.25;4.68;;;;;;;;;;4757198;29;20488;-89
2023/06/30 00:35:26;;;;;;;13.25;5.00;;;;;;;;;;4776150;29;20049;-89
2023/06/30 00:37:52;;;;;;;10.48;4.95;;;;;;;;;;4772448;29;20055;-88
2023/06/30 00:40:18;;;;;;;9.60;4.40;;;;;;;;;;4776223;29;20042;-89
2023/06/30 00:42:45;;;;;;;13.68;5.07;;;;;;;;;;4767153;29;20493;-89
2023/06/30 00:45:11;;;;;;;11.02;4.30;;;;;;;;;;4804885;29;20209;-88
2023/06/30 00:47:37;;;;;;;10.52;4.50;;;;;;;;;;4759519;29;20138;-88
2023/06/30 00:50:03;;;;;;;10.05;4.13;;;;;;;;;;4799257;29;20053;-89
2023/06/30 00:52:29;;;;;;;9.40;4.20;;;;;;;;;;4777962;29;20049;-89
2023/06/30 00:54:55;;;;;;;9.50;3.95;;;;;;;;;;4774733;29;20097;-89
2023/06/30 00:57:21;;;;;;;11.00;4.45;;;;;;;;;;4767083;29;20042;-89
2023/06/30 00:59:50;;;;;;;11.35;4.45;;;;;;;;;;4798894;29;20173;-88
2023/06/30 01:02:20;;;;;;;9.82;4.45;;;;;;;;;;4798550;29;20057;-88
2023/06/30 01:04:46;;;;;;;10.45;5.03;;;;;;;;;;4782700;29;20122;-88
2023/06/30 01:07:18;;;;;;;10.35;4.45;;;;;;;;;;4774668;29;20046;-89
2023/06/30 01:10:04;;;;;;;10.40;4.70;;;;;;;;;;4795120;29;20077;-89
2023/06/30 01:12:30;;;;;;;8.57;4.13;;;;;;;;;;4795542;29;20074;-89
2023/06/30 01:14:56;;;;;;;6.20;3.63;;;;;;;;;;4777911;29;20061;-87
2023/06/30 01:17:24;;;;;;;11.20;4.65;;;;;;;;;;4781131;29;20145;-88
2023/06/30 01:19:53;;;;;;;;;;;;;;;;;;4779574;29;20046;-89
2023/06/30 01:22:20;;;;;;;9.43;4.43;;;;;;;;;;4801727;29;19928;-89
2023/06/30 01:24:47;;;;;;;6.65;3.70;;;;;;;;;;4771299;29;20079;-88
2023/06/30 01:27:16;;;;;;;12.27;4.75;;;;;;;;;;4760221;29;20190;-89
2023/06/30 01:29:42;;;;;;;5.88;3.65;;;;;;;;;;4778856;29;20210;-89
2023/06/30 01:32:09;;;;;;;9.02;4.82;;;;;;;;;;4767681;29;20088;-89
2023/06/30 01:34:35;;;;;;;12.43;4.60;;;;;;;;;;4789263;29;20441;-88
2023/06/30 01:37:01;;;;;;;8.88;4.50;;;;;;;;;;4799099;29;20050;-89
2023/06/30 01:39:27;;;;;;;10.80;4.10;;;;;;;;;;4785259;29;20114;-88
2023/06/30 01:41:53;;;;;;;7.47;3.63;;;;;;;;;;4785553;29;20052;-89
2023/06/30 01:44:19;;;;;;;9.75;4.45;;;;;;;;;;4771218;29;20129;-89
2023/06/30 01:46:45;;;;;;;8.80;4.30;;;;;;;;;;4786466;29;20047;-89
2023/06/30 01:49:11;;;;;;;10.27;3.97;;;;;;;;;;4771340;29;20106;-89
2023/06/30 01:51:37;;;;;;;12.10;4.78;;;;;;;;;;4773770;29;20427;-88
2023/06/30 01:54:04;;;;;;;7.30;4.05;;;;;;;;;;4774335;29;20526;-89
2023/06/30 01:56:30;;;;;;;9.65;4.15;;;;;;;;;;4775619;29;20085;-88
2023/06/30 01:58:56;;;;;;;13.57;4.63;;;;;;;;;;4779381;29;20058;-89
2023/06/30 02:01:22;;;;;;;7.25;3.88;;;;;;;;;;4786730;29;20046;-89
2023/06/30 02:06:55;;;;;;;8.07;4.27;;;;;;;;;;4801743;29;20456;-88
2023/06/30 02:09:21;;;;;;;8.52;3.90;;;;;;;;;;4781017;29;20053;-88
2023/06/30 02:12:06;;;;;;;8.45;3.80;;;;;;;;;;4791686;29;20580;-89
2023/06/30 02:14:32;;;;;;;6.88;3.63;;;;;;;;;;4762677;29;20042;-88
2023/06/30 02:16:58;;;;;;;10.50;3.88;;;;;;;;;;4789474;29;20389;-89
2023/06/30 02:19:24;;;;;;;8.88;3.75;;;;;;;;;;4774033;29;20078;-89
2023/06/30 02:21:53;;;;;;;7.82;3.60;;;;;;;;;;4776590;29;20097;-89
2023/06/30 02:24:24;;;;;;;8.13;3.72;;;;;;;;;;4775869;29;20046;-89
2023/06/30 02:26:52;;;;;;;9.88;4.25;;;;;;;;;;4757017;29;20228;-88
2023/06/30 02:29:20;;;;;;;5.00;3.30;;;;;;;;;;4777303;29;20054;-89
2023/06/30 02:31:46;;;;;;;11.48;3.60;;;;;;;;;;4788198;29;20085;-89
2023/06/30 02:34:12;;;;;;;8.27;3.80;;;;;;;;;;4802644;29;20431;-89
2023/06/30 02:36:38;;;;;;;13.13;3.58;;;;;;;;;;4774303;29;20052;-88
2023/06/30 02:39:05;;;;;;;9.60;3.63;;;;;;;;;;4771504;29;20700;-88
2023/06/30 02:41:31;;;;;;;8.90;3.75;;;;;;;;;;4804663;29;20068;-89
2023/06/30 02:43:57;;;;;;;8.95;3.72;;;;;;;;;;4797734;29;20098;-88
2023/06/30 02:46:26;;;;;;;7.18;3.55;;;;;;;;;;4803454;29;20074;-89
2023/06/30 02:48:52;;;;;;;7.25;3.58;;;;;;;;;;4785808;29;20084;-89
2023/06/30 02:51:18;;;;;;;8.35;3.88;;;;;;;;;;4788352;29;20049;-89
2023/06/30 02:53:44;;;;;;;8.52;3.80;;;;;;;;;;4772996;29;20060;-89
2023/06/30 02:56:10;;;;;;;8.95;3.88;;;;;;;;;;4795379;29;20042;-89
2023/06/30 02:58:37;;;;;;;8.13;4.15;;;;;;;;;;4812079;29;20520;-89
2023/06/30 03:01:05;;;;;;;7.38;3.90;;;;;;;;;;4792924;29;20041;-89
2023/06/30 03:03:32;;;;;;;5.88;3.65;;;;;;;;;;4819006;29;20118;-88
2023/06/30 03:05:58;;;;;;;8.63;3.80;;;;;;;;;;4798891;29;20049;-89
2023/06/30 03:08:24;;;;;;;8.52;3.90;;;;;;;;;;4794421;29;20434;-89
2023/06/30 03:10:50;;;;;;;11.15;4.22;;;;;;;;;;4793451;29;20188;-89
2023/06/30 03:13:16;;;;;;;8.48;3.50;;;;;;;;;;4796300;29;20581;-89
2023/06/30 03:15:42;;;;;;;9.07;3.65;;;;;;;;;;4793926;29;20046;-89
2023/06/30 03:18:08;;;;;;;10.50;3.60;;;;;;;;;;4793114;29;22686;-89
2023/06/30 03:20:34;;;;;;;9.07;3.78;;;;;;;;;;4795575;29;20075;-89
2023/06/30 03:23:00;;;;;;;5.95;3.60;;;;;;;;;;4786483;29;20114;-89
2023/06/30 03:25:26;;;;;;;9.07;4.05;;;;;;;;;;4793223;29;20057;-89
2023/06/30 03:27:53;;;;;;;6.70;3.83;;;;;;;;;;4785277;29;20046;-89
2023/06/30 03:30:19;;;;;;;10.27;4.07;;;;;;;;;;4777803;29;20062;-89
2023/06/30 03:32:45;;;;;;;5.97;3.38;;;;;;;;;;4788621;29;20133;-88
2023/06/30 03:35:11;;;;;;;7.95;3.78;;;;;;;;;;4771125;29;20052;-89
2023/06/30 03:37:37;;;;;;;7.00;4.25;;;;;;;;;;4790172;29;20064;-89
2023/06/30 03:40:06;;;;;;;8.02;3.70;;;;;;;;;;4772153;29;20136;-89
2023/06/30 03:42:32;;;;;;;9.70;3.90;;;;;;;;;;4787205;29;20057;-88
2023/06/30 03:44:59;;;;;;;9.40;3.92;;;;;;;;;;4770324;29;20229;-89
2023/06/30 03:47:26;;;;;;;4.80;3.35;;;;;;;;;;4793837;29;20046;-89
2023/06/30 03:49:52;;;;;;;8.18;3.63;;;;;;;;;;4785955;29;20038;-88
2023/06/30 03:52:18;;;;;;;7.65;3.80;;;;;;;;;;4788786;29;20073;-89
2023/06/30 03:54:44;;;;;;;6.75;4.05;;;;;;;;;;4794175;29;20123;-89
2023/06/30 03:57:10;;;;;;;10.27;3.70;;;;;;;;;;4785133;29;20627;-89
2023/06/30 03:59:36;;;;;;;6.05;3.92;;;;;;;;;;4793437;29;20030;-89
2023/06/30 04:02:02;;;;;;;9.20;3.85;;;;;;;;;;4787872;29;20092;-89
2023/06/30 04:04:28;;;;;;;10.55;4.28;;;;;;;;;;4794939;29;20130;-89
2023/06/30 04:06:54;;;;;;;7.78;4.20;;;;;;;;;;4780046;29;20393;-89
2023/06/30 04:09:20;;;;;;;4.85;3.20;;;;;;;;;;4823108;29;20054;-88
2023/06/30 04:11:48;;;;;;;6.53;3.67;;;;;;;;;;4796763;29;20044;-89
2023/06/30 04:14:14;;;;;;;7.30;3.53;;;;;;;;;;4793952;29;20053;-89
2023/06/30 04:16:40;;;;;;;10.27;3.60;;;;;;;;;;4821434;29;20139;-89
2023/06/30 04:19:06;;;;;;;7.22;3.20;;;;;;;;;;4789945;29;20095;-89
2023/06/30 04:21:32;;;;;;;6.88;3.47;;;;;;;;;;4798594;29;20049;-89
2023/06/30 04:23:58;;;;;;;9.40;4.15;;;;;;;;;;4777313;29;20488;-90
2023/06/30 04:26:24;;;;;;;9.30;3.47;;;;;;;;;;4791759;29;20081;-90
2023/06/30 04:28:50;;;;;;;7.88;3.67;;;;;;;;;;4793997;29;20042;-90
2023/06/30 04:31:17;;;;;;;8.48;3.80;;;;;;;;;;4785317;29;20058;-90
2023/06/30 04:33:51;;;;;;;7.22;3.78;;;;;;;;;;4797465;29;20058;-89
2023/06/30 04:36:20;;;;;;;6.10;3.13;;;;;;;;;;4781042;29;20046;-91
2023/06/30 04:38:48;;;;;;;7.80;3.80;;;;;;;;;;4778109;29;20046;-90
2023/06/30 04:41:15;;;;;;;8.40;3.97;;;;;;;;;;4780170;29;20038;-90
2023/06/30 04:43:44;;;;;;;6.28;3.28;;;;;;;;;;4793189;29;20047;-90
2023/06/30 04:46:10;;;;;;;7.53;3.65;;;;;;;;;;4761379;29;20050;-90
2023/06/30 04:48:36;;;;;;;8.95;4.05;;;;;;;;;;4777207;29;21594;-90
2023/06/30 04:51:02;;;;;;;5.88;3.80;;;;;;;;;;4765010;29;20050;-90
2023/06/30 04:53:29;;;;;;;7.25;3.55;;;;;;;;;;4783333;29;20050;-90
2023/06/30 04:58:43;;;;;;;7.32;4.07;;;;;;;;;;4787208;29;20081;-90
2023/06/30 05:01:15;;;;;;;7.50;3.60;;;;;;;;;;4783541;29;20455;-90
2023/06/30 05:03:41;;;;;;;8.57;3.97;;;;;;;;;;4769480;29;20393;-90
2023/06/30 05:06:08;;;;;;;8.93;4.28;;;;;;;;;;4767283;29;20054;-91
2023/06/30 05:08:43;;;;;;;6.35;4.18;;;;;;;;;;4769891;29;20048;-90
2023/06/30 05:11:09;;;;;;;12.07;4.50;;;;;;;;;;4764231;29;20057;-90
2023/06/30 05:13:36;;;;;;;10.05;4.32;;;;;;;;;;4779287;29;20061;-90
2023/06/30 05:16:02;;;;;;;11.43;4.40;;;;;;;;;;4764694;29;20403;-90
2023/06/30 05:18:28;;;;;;;10.10;4.10;;;;;;;;;;4778209;29;20445;-90
2023/06/30 05:20:55;;;;;;;10.20;3.92;;;;;;;;;;4772241;29;20043;-91
2023/06/30 05:23:24;;;;;;;8.88;4.13;;;;;;;;;;4803009;29;20049;-89
2023/06/30 05:25:52;;;;;;;7.38;3.47;;;;;;;;;;4755089;29;20061;-90
2023/06/30 05:28:18;;;;;;;;;;;;;;;;;;4773608;29;20133;-90
2023/06/30 05:30:44;;;;;;;7.35;3.70;;;;;;;;;;4802956;29;19993;-90
2023/06/30 05:33:11;;;;;;;9.40;3.90;;;;;;;;;;4790965;29;20057;-91
2023/06/30 05:35:37;;;;;;;9.32;4.03;;;;;;;;;;4780024;29;20530;-90
2023/06/30 05:38:03;;;;;;;8.45;3.55;;;;;;;;;;4782076;29;20042;-90
2023/06/30 05:40:29;;;;;;;9.13;3.40;;;;;;;;;;4814949;29;20054;-89
2023/06/30 05:42:55;;;;;;;9.77;3.30;;;;;;;;;;4770920;29;20046;-89
2023/06/30 05:45:21;;;;;;;7.22;3.00;;;;;;;;;;4788499;29;20046;-89
2023/06/30 05:47:47;;;;;;;7.82;3.05;;;;;;;;;;4791175;29;20084;-89
2023/06/30 05:50:17;;;;;;;6.78;2.88;;;;;;;;;;4775190;29;20563;-89
2023/06/30 05:53:06;;;;;;;9.02;3.30;;;;;;;;;;4784684;29;20132;-90
2023/06/30 05:55:39;;;;;;;8.30;3.60;;;;;;;;;;4783863;29;20484;-90
2023/06/30 05:58:05;;;;;;;7.68;3.13;;;;;;;;;;4780279;29;20161;-90
2023/06/30 06:00:31;;;;;;;7.68;2.58;;;;;;;;;;4785882;29;20092;-90
2023/06/30 06:02:57;;;;;;;8.43;2.72;;;;;;;;;;4769523;29;20042;-90
2023/06/30 06:05:26;;;;;;;6.82;2.90;;;;;;;;;;4789686;29;20839;-90
2023/06/30 06:07:52;;;;;;;6.78;2.75;;;;;;;;;;4771194;29;20098;-89
2023/06/30 06:10:21;;;;;;;5.55;3.10;;;;;;;;;;4806345;29;20129;-89
2023/06/30 06:12:51;;;;;;;8.00;2.50;;;;;;;;;;4789745;29;20046;-90
2023/06/30 06:15:17;;;;;;;7.32;2.63;;;;;;;;;;4786530;29;20050;-90
2023/06/30 06:17:55;;;;;;;8.10;3.20;;;;;;;;;;4790897;29;20064;-90
2023/06/30 06:20:24;;;;;;;5.32;2.85;;;;;;;;;;4793192;29;20057;-89
2023/06/30 06:22:50;;;;;;;8.40;2.78;;;;;;;;;;4794814;29;20678;-90
2023/06/30 06:25:17;;;;;;;6.32;2.60;;;;;;;;;;4794377;29;20049;-90
2023/06/30 06:27:43;;;;;;;6.20;2.45;;;;;;;;;;4788316;29;20053;-89
2023/06/30 06:30:09;;;;;;;6.95;2.55;;;;;;;;;;4789416;29;20540;-90
2023/06/30 06:32:35;;;;;;;10.48;2.80;;;;;;;;;;4786565;29;20993;-90
2023/06/30 06:35:01;;;;;;;5.75;2.70;;;;;;;;;;4783503;29;20240;-90
2023/06/30 06:37:27;;;;;;;6.97;2.65;;;;;;;;;;4788429;29;20126;-90
2023/06/30 06:39:53;;;;;;;10.13;2.58;;;;;;;;;;4784594;29;20038;-89
2023/06/30 06:42:19;;;;;;;5.28;2.42;;;;;;;;;;4791934;29;20098;-89
2023/06/30 06:44:45;;;;;;;5.43;2.03;;;;;;;;;;4787033;29;20042;-90
2023/06/30 06:47:30;;;;;;;6.95;2.20;;;;;;;;;;4787494;29;21446;-89
2023/06/30 06:49:56;;;;;;;6.13;2.63;;;;;;;;;;4804826;29;20128;-89
2023/06/30 06:52:23;;;;;;;7.47;2.42;;;;;;;;;;4815908;29;20136;-90
2023/06/30 06:54:49;;;;;;;5.45;2.17;;;;;;;;;;4791287;29;20110;-89
2023/06/30 06:57:15;;;;;;;6.40;1.90;;;;;;;;;;4772423;29;20523;-89
2023/06/30 06:59:43;;;;;;;4.75;2.00;;;;;;;;;;4789215;29;20508;-90
2023/06/30 07:02:09;;;;;;;;;;;;;;;;;;4795807;29;20141;-90
2023/06/30 07:04:35;;;;;;;5.82;1.75;;;;;;;;;;4788787;29;19931;-90
2023/06/30 07:07:01;;;;;;;6.03;1.80;;;;;;;;;;4783110;29;20505;-89
2023/06/30 07:09:27;;;;;;;6.43;1.98;;;;;;;;;;4814870;29;20038;-90
2023/06/30 07:11:53;;;;;;;3.38;1.40;;;;;;;;;;4786138;29;20137;-89
2023/06/30 07:14:23;;;;;;;7.22;1.60;;;;;;;;;;4788386;29;20042;-89
2023/06/30 07:16:51;;;;;;;4.80;1.60;;;;;;;;;;4822536;29;20048;-90
2023/06/30 07:19:17;;;;;;;8.43;1.23;;;;;;;;;;4814918;29;20102;-89
2023/06/30 07:21:43;;;;;;;7.07;1.45;;;;;;;;;;4811801;29;20083;-89
2023/06/30 07:24:19;;;;;;;1.58;1.30;;;;;;;;;;4806908;29;20041;-89
2023/06/30 07:26:45;;;;;;;4.53;1.42;;;;;;;;;;4809100;29;20029;-89
2023/06/30 07:29:11;;;;;;;3.88;1.80;;;;;;;;;;4789708;29;20033;-88
2023/06/30 07:31:37;;;;;;;7.80;1.65;;;;;;;;;;4816481;29;20053;-89
2023/06/30 07:34:03;;;;;;;2.92;1.30;;;;;;;;;;4796211;29;20780;-88
2023/06/30 07:36:30;;;;;;;3.53;1.50;;;;;;;;;;4816851;29;20053;-89
2023/06/30 07:38:56;;;;;;;5.47;1.45;;;;;;;;;;4784872;29;20118;-89
2023/06/30 07:41:22;;;;;;;6.82;1.23;;;;;;;;;;4804135;29;20045;-90
2023/06/30 07:43:51;;;;;;;4.57;1.30;;;;;;;;;;4776413;29;20042;-89
2023/06/30 07:46:17;;;;;;;4.57;1.20;;;;;;;;;;4780595;29;20244;-89
2023/06/30 07:48:49;;;;;;;5.00;1.50;;;;;;;;;;4790926;29;20046;-90
2023/06/30 07:51:15;;;;;;;3.90;1.27;;;;;;;;;;4805033;29;20614;-89
2023/06/30 07:53:41;;;;;;;4.85;1.58;;;;;;;;;;4809335;29;20060;-89
2023/06/30 07:56:07;;;;;;;3.72;1.33;;;;;;;;;;4787070;29;20124;-89
2023/06/30 07:58:34;;;;;;;4.63;1.73;;;;;;;;;;4807385;29;20501;-90
2023/06/30 08:01:00;;;;;;;3.30;1.10;;;;;;;;;;4806428;29;20042;-89
2023/06/30 08:03:26;;;;;;;2.60;1.23;;;;;;;;;;4794076;29;20473;-89
2023/06/30 08:05:52;;;;;;;4.88;1.30;;;;;;;;;;4786831;29;20531;-89
2023/06/30 08:08:18;;;;;;;2.60;1.17;;;;;;;;;;4792528;29;20061;-89
2023/06/30 08:10:44;;;;;;;4.22;1.30;;;;;;;;;;4794743;29;20095;-89
2023/06/30 08:13:10;;;;;;;3.45;1.10;;;;;;;;;;4791216;29;20053;-89
2023/06/30 08:15:36;;;;;;;5.05;1.35;;;;;;;;;;4795093;29;20152;-89
2023/06/30 08:18:02;;;;;;;2.88;1.00;;;;;;;;;;4811785;29;20597;-88
2023/06/30 08:20:28;;;;;;;3.60;1.20;;;;;;;;;;4788941;29;20480;-89
2023/06/30 08:23:06;;;;;;;2.58;1.20;;;;;;;;;;4800459;29;20050;-92
2023/06/30 08:25:38;;;;;;;2.88;1.20;;;;;;;;;;4801509;29;20205;-91
2023/06/30 08:28:06;;;;;;;3.42;1.25;;;;;;;;;;4796879;29;20080;-88
2023/06/30 08:30:54;;;;;;;3.65;1.17;;;;;;;;;;4801004;29;20942;-91
2023/06/30 08:33:28;;;;;;;4.57;1.33;;;;;;;;;;4803889;29;20046;-89
2023/06/30 08:35:54;;;;;;;2.60;1.20;;;;;;;;;;4814863;29;20042;-90
2023/06/30 08:38:23;;;;;;;3.60;1.10;;;;;;;;;;4820531;29;20045;-89
2023/06/30 08:40:49;;;;;;;6.10;1.30;;;;;;;;;;4821198;29;20628;-89
2023/06/30 08:43:15;;;;;;;3.63;1.20;;;;;;;;;;4802009;29;20054;-90
2023/06/30 08:45:43;;;;;;;4.50;1.40;;;;;;;;;;4831143;29;20052;-90
2023/06/30 08:48:12;;;;;;;3.40;1.08;;;;;;;;;;4818134;29;20065;-89
2023/06/30 08:50:38;;;;;;;4.80;1.15;;;;;;;;;;4819492;29;20054;-90
2023/06/30 08:53:04;;;;;;;2.55;0.88;;;;;;;;;;4833539;29;20057;-90
2023/06/30 08:55:46;;;;;;;2.25;1.10;;;;;;;;;;4816696;29;20061;-89
2023/06/30 08:58:22;;;;;;;3.05;0.90;;;;;;;;;;4813698;29;20069;-90
2023/06/30 09:00:50;;;;;;;2.88;1.52;;;;;;;;;;4846087;29;20086;-90
2023/06/30 09:03:17;;;;;;;2.10;1.13;;;;;;;;;;4811300;29;20078;-89
2023/06/30 09:05:43;;;;;;;5.10;1.45;;;;;;;;;;4822894;29;20037;-89
2023/06/30 09:08:23;;;;;;;4.18;1.30;;;;;;;;;;4821143;29;20049;-87
2023/06/30 09:10:49;;;;;;;3.95;1.15;;;;;;;;;;4815350;29;20047;-90
2023/06/30 09:13:16;;;;;;;5.25;1.20;;;;;;;;;;4801784;29;20048;-89
2023/06/30 09:15:45;;;;;;;2.70;1.20;;;;;;;;;;4809451;29;20038;-90
2023/06/30 09:18:11;;;;;;;1.40;1.20;;;;;;;;;;4799763;29;20042;-90
2023/06/30 09:20:38;;;;;;;3.55;1.20;;;;;;;;;;4806302;29;20128;-89
2023/06/30 09:23:06;;;;;;;2.42;1.10;;;;;;;;;;4806133;29;20076;-89
2023/06/30 09:25:32;;;;;;;4.15;1.10;;;;;;;;;;4801285;29;20034;-90
2023/06/30 09:27:59;;;;;;;2.78;1.20;;;;;;;;;;4813797;29;20041;-90
2023/06/30 09:30:44;;;;;;;4.10;1.38;;;;;;;;;;4800960;29;20058;-90
2023/06/30 09:33:11;;;;;;;4.25;1.20;;;;;;;;;;4798196;29;20136;-89
2023/06/30 09:35:38;;;;;;;4.38;1.13;;;;;;;;;;4789213;29;20045;-90
2023/06/30 09:38:04;;;;;;;3.13;0.98;;;;;;;;;;4814150;29;20046;-89
2023/06/30 09:40:30;;;;;;;4.78;1.27;;;;;;;;;;4798384;29;20038;-89
2023/06/30 09:42:56;;;;;;;2.35;1.02;;;;;;;;;;4790272;29;20046;-89
2023/06/30 09:45:23;;;;;;;3.17;1.17;;;;;;;;;;4816084;29;20038;-90
2023/06/30 09:47:55;;;;;;;3.65;1.10;;;;;;;;;;4795509;29;20054;-89
2023/06/30 09:50:24;;;;;;;2.70;1.30;;;;;;;;;;4791410;29;20038;-90
2023/06/30 09:52:51;;;;;;;3.00;0.95;;;;;;;;;;4824930;29;20508;-90
2023/06/30 09:55:17;;;;;;;2.90;1.10;;;;;;;;;;4781654;29;20056;-89
2023/06/30 09:57:46;;;;;;;2.08;0.80;;;;;;;;;;4796381;29;20054;-90
2023/06/30 10:00:20;;;;;;;1.73;1.00;;;;;;;;;;4806680;29;20050;-89
2023/06/30 10:02:49;;;;;;;2.55;1.17;;;;;;;;;;4810460;29;20038;-88
2023/06/30 10:05:16;;;;;;;2.85;1.00;;;;;;;;;;4796093;29;20052;-89
2023/06/30 10:07:42;;;;;;;2.38;0.80;;;;;;;;;;4795880;29;20045;-89
2023/06/30 10:10:11;;;;;;;3.28;1.00;;;;;;;;;;4787987;29;22253;-88
2023/06/30 10:12:38;;;;;;;1.98;0.63;;;;;;;;;;4793315;29;20084;-88
2023/06/30 10:15:04;;;;;;;4.00;1.05;;;;;;;;;;4791945;29;20141;-89
2023/06/30 10:17:30;;;;;;;2.92;0.80;;;;;;;;;;4792660;29;20053;-88
2023/06/30 10:19:56;;;;;;;5.38;0.90;;;;;;;;;;4788414;29;20045;-89
2023/06/30 10:22:22;;;;;;;1.33;0.70;;;;;;;;;;4808709;29;20519;-89
2023/06/30 10:24:48;;;;;;;2.08;0.85;;;;;;;;;;4791664;29;20038;-89
2023/06/30 10:27:19;;;;;;;2.92;1.08;;;;;;;;;;4781453;29;20076;-89
2023/06/30 10:29:46;;;;;;;2.13;0.70;;;;;;;;;;4805684;29;20511;-89
2023/06/30 10:32:12;;;;;;;2.58;1.08;;;;;;;;;;4787666;29;20151;-89
2023/06/30 10:37:25;;;;;;;4.20;1.15;;;;;;;;;;4796169;29;20181;-89
2023/06/30 10:39:51;;;;;;;3.72;1.00;;;;;;;;;;4787180;29;20061;-88
2023/06/30 10:42:20;;;;;;;1.40;0.93;;;;;;;;;;4775335;29;20057;-88
2023/06/30 10:44:46;;;;;;;2.65;1.20;;;;;;;;;;4788666;29;20052;-88
2023/06/30 10:47:13;;;;;;;3.75;1.10;;;;;;;;;;4786854;29;20098;-89
2023/06/30 10:50:05;;;;;;;;;;;;;;;;;;;;;
2023/06/30 10:52:37;;;;;;;4.95;1.00;;;;;;;;;;4792774;29;20053;-88
2023/06/30 10:55:06;;;;;;;3.15;1.10;;;;;;;;;;4788794;29;20042;-88
2023/06/30 10:57:36;;;;;;;3.65;1.10;;;;;;;;;;4795157;29;20110;-89
2023/06/30 11:00:13;;;;;;;1.75;0.90;;;;;;;;;;4774225;29;20048;-88
2023/06/30 11:02:49;;;;;;;1.20;0.70;;;;;;;;;;4792252;29;20468;-88
2023/06/30 11:05:23;;;;;;;3.55;1.05;;;;;;;;;;4779775;29;20101;-87
2023/06/30 11:07:52;;;;;;;2.70;0.80;;;;;;;;;;4804757;29;20404;-88
2023/06/30 11:10:34;;;;;;;4.82;1.23;;;;;;;;;;4790523;29;20124;-88
2023/06/30 11:13:01;;;;;;;2.70;0.73;;;;;;;;;;4791328;29;20046;-88
2023/06/30 11:15:28;;;;;;;3.30;1.10;;;;;;;;;;4807787;29;20126;-88
2023/06/30 11:17:54;;;;;;;2.43;1.10;;;;;;;;;;4790990;29;20050;-88
2023/06/30 11:20:26;;;;;;;4.18;1.10;;;;;;;;;;4809919;29;20854;-88
2023/06/30 11:23:02;;;;;;;4.28;1.40;;;;;;;;;;4789338;29;20504;-90
2023/06/30 11:25:31;;;;;;;3.20;0.90;;;;;;;;;;4794092;29;20038;-88
2023/06/30 11:27:58;;;;;;;3.38;1.20;;;;;;;;;;4775708;29;20052;-89
2023/06/30 11:30:24;;;;;;;2.78;0.85;;;;;;;;;;4808338;29;20045;-88
2023/06/30 11:32:58;;;;;;;3.10;0.85;;;;;;;;;;4790160;29;21447;-89
2023/06/30 11:35:24;;;;;;;3.65;1.38;;;;;;;;;;4792740;29;20050;-88
2023/06/30 11:37:50;;;;;;;3.13;1.10;;;;;;;;;;4773913;29;20046;-89
2023/06/30 11:40:17;;;;;;;4.05;1.00;;;;;;;;;;4778479;29;20164;-89
2023/06/30 11:42:43;;;;;;;4.40;1.03;;;;;;;;;;4793426;29;20053;-88
2023/06/30 11:45:10;;;;;;;1.92;1.02;;;;;;;;;;4789062;29;20105;-89
2023/06/30 11:47:36;;;;;;;3.88;1.00;;;;;;;;;;4777267;29;20136;-88
2023/06/30 11:50:07;;;;;;;2.47;1.10;;;;;;;;;;4789997;29;20060;-89
2023/06/30 11:52:33;;;;;;;4.10;1.25;;;;;;;;;;4824837;29;20176;-88
2023/06/30 11:55:02;;;;;;;4.28;1.40;;;;;;;;;;4789880;29;20053;-89
2023/06/30 11:57:34;;;;;;;6.15;1.38;;;;;;;;;;4806242;29;20065;-88
2023/06/30 12:00:06;;;;;;;2.85;1.20;;;;;;;;;;4794761;29;20130;-88
2023/06/30 12:02:32;;;;;;;4.53;1.40;;;;;;;;;;4812078;29;20046;-88
2023/06/30 12:04:58;;;;;;;3.03;1.20;;;;;;;;;;4795166;29;20057;-89
2023/06/30 12:07:25;;;;;;;4.53;1.45;;;;;;;;;;4797604;29;20046;-89
2023/06/30 12:10:01;;;;;;;5.22;1.08;;;;;;;;;;4780333;29;20056;-88
2023/06/30 12:12:30;;;;;;;2.15;1.30;;;;;;;;;;4798672;29;20046;-88
2023/06/30 12:14:59;;;;;;;2.38;1.10;;;;;;;;;;4794355;29;20136;-89
2023/06/30 12:17:26;;;;;;;3.72;1.20;;;;;;;;;;4780814;29;20461;-89
2023/06/30 12:19:52;;;;;;;1.83;0.82;;;;;;;;;;4793373;29;20136;-89
2023/06/30 12:22:27;;;;;;;3.38;1.27;;;;;;;;;;4795838;29;20042;-89
2023/06/30 12:24:59;;;;;;;2.80;1.20;;;;;;;;;;4778604;29;20085;-89
2023/06/30 12:27:27;;;;;;;3.88;1.20;;;;;;;;;;4812404;29;20046;-88
2023/06/30 12:29:56;;;;;;;3.05;1.30;;;;;;;;;;4792015;29;20104;-88
2023/06/30 12:32:22;;;;;;;1.40;1.10;;;;;;;;;;4795774;29;20046;-88
2023/06/30 12:34:49;;;;;;;1.85;1.08;;;;;;;;;;4792585;29;20077;-89
2023/06/30 12:37:16;;;;;;;4.00;1.70;;;;;;;;;;4793322;29;20079;-88
2023/06/30 12:39:42;;;;;;;2.80;1.13;;;;;;;;;;4779674;29;20468;-89
2023/06/30 12:42:11;;;;;;;3.20;1.27;;;;;;;;;;4777139;29;20773;-89
2023/06/30 12:44:37;;;;;;;6.40;1.58;;;;;;;;;;4782967;29;20110;-89
2023/06/30 12:47:05;;;;;;;4.55;1.27;;;;;;;;;;4792850;29;20077;-89
2023/06/30 12:49:31;;;;;;;;;;;;;;;;;;4793981;29;20041;-88
2023/06/30 12:51:57;;;;;;;3.33;1.33;;;;;;;;;;4792648;29;19935;-89
2023/06/30 12:54:23;;;;;;;3.83;1.45;;;;;;;;;;4779353;29;20050;-88
2023/06/30 12:56:51;;;;;;;3.45;1.38;;;;;;;;;;4769159;29;20046;-89
2023/06/30 12:59:17;;;;;;;5.68;1.40;;;;;;;;;;4809009;29;21643;-89
2023/06/30 13:01:43;;;;;;;1.50;1.20;;;;;;;;;;4793244;29;20152;-89
2023/06/30 13:04:09;;;;;;;3.10;1.35;;;;;;;;;;4776103;29;20490;-89
2023/06/30 13:06:35;;;;;;;2.65;1.30;;;;;;;;;;4792731;29;20441;-90
2023/06/30 13:09:02;;;;;;;1.70;1.17;;;;;;;;;;4802682;29;20062;-89
2023/06/30 13:11:28;;;;;;;3.22;1.40;;;;;;;;;;4797191;29;20042;-89
2023/06/30 13:21:15;;;;;;;4.03;1.48;;;;;;;;;;4784880;29;20124;-85
2023/06/30 13:27:57;;;;;;;2.50;1.27;;;;;;;;;;4737158;29;20048;-85
2023/06/30 13:34:58;;;;;;;3.92;1.50;;;;;;;;;;4704662;30;20115;-84
2023/06/30 13:38:46;;;;;;;;;;;;;;;;;;;;;
2023/06/30 13:42:22;;;;;;;12.93;1.65;;;;;;;;;;4647839;30;20078;-83
2023/06/30 14:05:49;;;;;;;2.33;1.30;;;;;;;;;;5037629;27;1344198;-82
2023/06/30 14:08:15;;;;;;;5.60;1.75;;;;;;;;;;5063349;28;20049;-82
2023/06/30 14:10:41;;;;;;;2.53;1.52;;;;;;;;;;5063816;28;20044;-83
2023/06/30 14:13:07;;;;;;;3.55;1.40;;;;;;;;;;5040089;28;20420;-82
2023/06/30 14:15:33;;;;;;;2.83;1.23;;;;;;;;;;5045896;28;20477;-82
2023/06/30 14:17:59;;;;;;;3.38;1.58;;;;;;;;;;5039737;28;20060;-82
2023/06/30 14:20:25;;;;;;;5.35;1.60;;;;;;;;;;5047465;28;20095;-83
2023/06/30 14:22:51;;;;;;;4.25;1.50;;;;;;;;;;5034412;28;20052;-83
2023/06/30 14:25:18;;;;;;;3.08;1.48;;;;;;;;;;5044939;28;20051;-83
2023/06/30 14:27:44;;;;;;;4.65;1.40;;;;;;;;;;5025705;28;20041;-83
2023/06/30 14:30:10;;;;;;;2.28;1.15;;;;;;;;;;5022054;28;20072;-82
2023/06/30 14:32:37;;;;;;;6.78;1.50;;;;;;;;;;5011839;28;20086;-83
2023/06/30 14:35:03;;;;;;;3.60;1.15;;;;;;;;;;5022093;28;20071;-83
2023/06/30 14:37:29;;;;;;;3.50;1.30;;;;;;;;;;4996437;28;20087;-83
2023/06/30 14:39:55;;;;;;;2.47;1.10;;;;;;;;;;5037055;28;20040;-82
2023/06/30 14:42:21;;;;;;;1.98;1.50;;;;;;;;;;5043437;28;20036;-82
2023/06/30 14:44:47;;;;;;;4.13;1.25;;;;;;;;;;5023745;28;20432;-86
2023/06/30 14:47:15;;;;;;;2.53;1.40;;;;;;;;;;4994965;28;20049;-83
2023/06/30 14:49:41;;;;;;;2.55;1.52;;;;;;;;;;5027253;28;21489;-83
2023/06/30 14:52:07;;;;;;;2.50;1.48;;;;;;;;;;5022157;28;20066;-83
2023/06/30 14:54:33;;;;;;;3.20;1.50;;;;;;;;;;5027668;28;20032;-83
2023/06/30 14:56:59;;;;;;;5.10;1.30;;;;;;;;;;5015439;28;20048;-83
2023/06/30 14:59:25;;;;;;;3.72;1.38;;;;;;;;;;5015247;28;20039;-83
2023/06/30 15:01:51;;;;;;;3.55;1.40;;;;;;;;;;5023921;28;20040;-82
2023/06/30 15:04:18;;;;;;;3.08;1.33;;;;;;;;;;5021280;28;20061;-82
2023/06/30 15:06:44;;;;;;;3.85;1.17;;;;;;;;;;4998372;28;20041;-82
2023/06/30 15:09:10;;;;;;;1.63;1.30;;;;;;;;;;4991193;28;20132;-82
2023/06/30 15:11:36;;;;;;;2.97;1.40;;;;;;;;;;4980101;28;20045;-82
2023/06/30 15:14:02;;;;;;;2.17;1.52;;;;;;;;;;5010206;28;20491;-84
2023/06/30 15:16:47;;;;;;;4.95;1.50;;;;;;;;;;4985493;28;20087;-85
2023/06/30 15:19:34;;;;;;;2.50;1.50;;;;;;;;;;5004432;28;20045;-84
2023/06/30 15:22:11;;;;;;;;;;;;;;;;;;;;;
2023/06/30 15:24:41;;;;;;;3.20;1.95;;;;;;;;;;4998232;28;20053;-85
2023/06/30 15:27:19;;;;;;;2.22;1.50;;;;;;;;;;4996894;28;20048;-85
2023/06/30 15:29:55;;;;;;;;;;;;;;;;;;;;;
2023/06/30 15:32:24;;;;;;;5.55;1.80;;;;;;;;;;5015618;28;20406;-85
2023/06/30 15:34:53;;;;;;;2.97;1.92;;;;;;;;;;5018599;28;20486;-85
2023/06/30 15:37:19;;;;;;;2.53;1.77;;;;;;;;;;5012984;28;20080;-84